createdAt,value
2019-04-27T00:00:28.500Z,998.86
2019-04-27T00:01:24.663Z,998.96
2019-04-27T00:02:26.617Z,998.85
2019-04-27T00:03:26.082Z,998.85
2019-04-27T00:04:25.399Z,998.88
2019-04-27T00:05:32.056Z,998.91
2019-04-27T00:06:27.608Z,998.78
2019-04-27T00:07:25.845Z,998.82
2019-04-27T00:08:28.525Z,998.81
2019-04-27T00:09:28.536Z,998.83
2019-04-27T00:10:28.606Z,998.83
2019-04-27T00:11:27.492Z,998.86
2019-04-27T00:12:26.659Z,998.94
2019-04-27T00:13:26.852Z,998.88
2019-04-27T00:14:27.030Z,998.82
2019-04-27T00:15:31.194Z,998.82
2019-04-27T00:16:29.337Z,998.85
2019-04-27T00:17:43.487Z,998.85
2019-04-27T00:18:28.628Z,998.85
2019-04-27T00:19:31.837Z,998.86
2019-04-27T00:20:28.966Z,998.80
2019-04-27T00:21:28.114Z,998.77
2019-04-27T00:22:28.292Z,998.79
2019-04-27T00:23:28.453Z,998.81
2019-04-27T00:24:28.607Z,998.69
2019-04-27T00:25:28.796Z,998.70
2019-04-27T00:26:28.945Z,998.77
2019-04-27T00:27:29.110Z,998.84
2019-04-27T00:28:29.271Z,998.84
2019-04-27T00:29:29.446Z,998.74
2019-04-27T00:30:29.610Z,998.78
2019-04-27T00:31:30.778Z,998.83
2019-04-27T00:32:29.947Z,998.79
2019-04-27T00:33:30.099Z,998.78
2019-04-27T00:34:30.249Z,998.79
2019-04-27T00:35:30.418Z,998.71
2019-04-27T00:36:30.569Z,998.78
2019-04-27T00:37:30.716Z,998.71
2019-04-27T00:38:33.292Z,998.69
2019-04-27T00:39:31.011Z,998.75
2019-04-27T00:40:31.180Z,998.73
2019-04-27T00:41:31.323Z,998.69
2019-04-27T00:42:31.463Z,998.69
2019-04-27T00:43:32.831Z,998.67
2019-04-27T00:44:31.862Z,998.64
2019-04-27T00:45:33.515Z,998.64
2019-04-27T00:46:33.081Z,998.67
2019-04-27T00:47:35.019Z,998.72
2019-04-27T00:48:33.340Z,998.73
2019-04-27T00:49:33.675Z,998.75
2019-04-27T00:50:33.812Z,998.72
2019-04-27T00:51:33.336Z,998.68
2019-04-27T00:52:34.856Z,998.70
2019-04-27T00:53:35.022Z,998.70
2019-04-27T00:54:33.986Z,998.66
2019-04-27T00:55:34.703Z,998.63
2019-04-27T00:56:34.009Z,998.66
2019-04-27T00:57:36.026Z,998.67
2019-04-27T00:58:34.248Z,998.63
2019-04-27T00:59:34.422Z,998.62
2019-04-27T01:00:35.532Z,998.59
2019-04-27T01:01:34.814Z,998.62
2019-04-27T01:02:35.432Z,998.56
2019-04-27T01:03:36.213Z,998.61
2019-04-27T01:04:35.356Z,998.58
2019-04-27T01:05:35.519Z,998.59
2019-04-27T01:06:35.658Z,998.56
2019-04-27T01:07:35.839Z,998.52
2019-04-27T01:08:36.044Z,998.55
2019-04-27T01:09:36.189Z,998.57
2019-04-27T01:10:36.359Z,998.61
2019-04-27T01:11:36.526Z,998.55
2019-04-27T01:12:36.702Z,998.53
2019-04-27T01:13:37.523Z,998.65
2019-04-27T01:14:37.004Z,998.61
2019-04-27T01:15:37.165Z,998.58
2019-04-27T01:16:37.301Z,998.60
2019-04-27T01:17:39.017Z,998.55
2019-04-27T01:18:38.748Z,998.53
2019-04-27T01:19:39.244Z,998.55
2019-04-27T01:20:38.778Z,998.49
2019-04-27T01:21:39.655Z,998.48
2019-04-27T01:22:39.480Z,998.53
2019-04-27T01:23:38.593Z,998.46
2019-04-27T01:24:39.132Z,998.40
2019-04-27T01:25:40.528Z,998.40
2019-04-27T01:26:39.180Z,998.39
2019-04-27T01:27:39.437Z,998.39
2019-04-27T01:28:40.488Z,998.36
2019-04-27T01:29:41.437Z,998.39
2019-04-27T01:30:39.756Z,998.36
2019-04-27T01:31:39.903Z,998.30
2019-04-27T01:32:41.031Z,998.29
2019-04-27T01:33:40.186Z,998.31
2019-04-27T01:34:40.346Z,998.24
2019-04-27T01:35:40.491Z,998.26
2019-04-27T01:36:40.642Z,998.27
2019-04-27T01:37:40.815Z,998.30
2019-04-27T01:38:41.168Z,998.27
2019-04-27T01:39:42.222Z,998.24
2019-04-27T01:40:42.027Z,998.22
2019-04-27T01:41:41.529Z,998.19
2019-04-27T01:42:42.538Z,998.21
2019-04-27T01:43:41.919Z,998.19
2019-04-27T01:44:42.108Z,998.20
2019-04-27T01:45:43.033Z,998.21
2019-04-27T01:46:42.396Z,998.22
2019-04-27T01:47:42.550Z,998.22
2019-04-27T01:48:42.679Z,998.22
2019-04-27T01:49:42.945Z,998.18
2019-04-27T01:50:43.099Z,998.18
2019-04-27T01:51:43.242Z,998.15
2019-04-27T01:52:43.416Z,998.15
2019-04-27T01:53:44.534Z,998.16
2019-04-27T01:54:43.703Z,998.11
2019-04-27T01:55:43.866Z,998.11
2019-04-27T01:56:44.022Z,998.15
2019-04-27T01:57:45.034Z,998.12
2019-04-27T01:58:44.277Z,998.08
2019-04-27T01:59:44.464Z,998.11
2019-04-27T02:00:44.618Z,998.11
2019-04-27T02:01:44.735Z,998.08
2019-04-27T02:02:45.537Z,998.09
2019-04-27T02:03:45.034Z,998.13
2019-04-27T02:04:45.178Z,998.02
2019-04-27T02:05:45.343Z,998.09
2019-04-27T02:06:45.508Z,998.07
2019-04-27T02:07:46.544Z,998.11
2019-04-27T02:08:45.782Z,998.04
2019-04-27T02:09:45.940Z,998.10
2019-04-27T02:10:46.123Z,998.07
2019-04-27T02:11:46.299Z,998.00
2019-04-27T02:12:46.488Z,998.03
2019-04-27T02:13:46.648Z,998.03
2019-04-27T02:14:46.813Z,997.95
2019-04-27T02:15:48.630Z,997.97
2019-04-27T02:16:47.125Z,997.93
2019-04-27T02:17:50.677Z,997.99
2019-04-27T02:18:48.864Z,998.00
2019-04-27T02:19:49.375Z,997.92
2019-04-27T02:20:49.292Z,997.96
2019-04-27T02:21:51.304Z,997.96
2019-04-27T02:22:50.775Z,997.96
2019-04-27T02:23:49.707Z,997.94
2019-04-27T02:24:49.265Z,997.89
2019-04-27T02:25:49.921Z,997.97
2019-04-27T02:26:49.730Z,997.96
2019-04-27T02:27:50.194Z,997.92
2019-04-27T02:28:49.599Z,997.95
2019-04-27T02:29:50.449Z,997.95
2019-04-27T02:30:49.912Z,997.92
2019-04-27T02:31:50.980Z,997.93
2019-04-27T02:32:50.111Z,997.85
2019-04-27T02:33:50.252Z,997.88
2019-04-27T02:34:50.601Z,997.84
2019-04-27T02:35:51.575Z,997.87
2019-04-27T02:36:51.046Z,997.81
2019-04-27T02:37:50.922Z,997.78
2019-04-27T02:38:51.057Z,997.79
2019-04-27T02:39:51.199Z,997.77
2019-04-27T02:40:51.371Z,997.89
2019-04-27T02:41:52.598Z,997.83
2019-04-27T02:42:54.621Z,997.84
2019-04-27T02:43:52.942Z,997.81
2019-04-27T02:44:52.172Z,997.85
2019-04-27T02:45:52.311Z,997.75
2019-04-27T02:46:52.485Z,997.78
2019-04-27T02:47:53.534Z,997.72
2019-04-27T02:48:59.843Z,997.78
2019-04-27T02:49:54.894Z,997.75
2019-04-27T02:50:53.114Z,997.73
2019-04-27T02:51:53.265Z,997.82
2019-04-27T02:52:53.421Z,997.78
2019-04-27T02:53:53.569Z,997.77
2019-04-27T02:54:54.054Z,997.81
2019-04-27T02:55:53.933Z,997.76
2019-04-27T02:56:54.076Z,997.73
2019-04-27T02:57:54.210Z,997.76
2019-04-27T02:58:54.479Z,997.75
2019-04-27T02:59:54.600Z,997.72
2019-04-27T03:00:54.845Z,997.66
2019-04-27T03:01:54.970Z,997.72
2019-04-27T03:02:55.159Z,997.72
2019-04-27T03:03:55.322Z,997.64
2019-04-27T03:04:56.051Z,997.65
2019-04-27T03:05:56.551Z,997.66
2019-04-27T03:06:55.778Z,997.68
2019-04-27T03:07:55.920Z,997.60
2019-04-27T03:08:56.100Z,997.61
2019-04-27T03:09:56.232Z,997.62
2019-04-27T03:10:56.363Z,997.61
2019-04-27T03:11:56.514Z,997.60
2019-04-27T03:12:56.691Z,997.57
2019-04-27T03:13:59.665Z,997.59
2019-04-27T03:14:57.021Z,997.61
2019-04-27T03:16:00.244Z,997.58
2019-04-27T03:17:00.006Z,997.59
2019-04-27T03:17:59.700Z,997.56
2019-04-27T03:19:13.375Z,997.55
2019-04-27T03:19:59.990Z,997.54
2019-04-27T03:21:00.334Z,997.56
2019-04-27T03:21:59.541Z,997.53
2019-04-27T03:23:00.079Z,997.55
2019-04-27T03:24:00.260Z,997.50
2019-04-27T03:25:00.250Z,997.51
2019-04-27T03:26:00.420Z,997.56
2019-04-27T03:27:00.695Z,997.56
2019-04-27T03:28:02.587Z,997.52
2019-04-27T03:29:00.000Z,997.48
2019-04-27T03:30:00.729Z,997.51
2019-04-27T03:31:02.495Z,997.42
2019-04-27T03:32:02.130Z,997.45
2019-04-27T03:33:02.888Z,997.46
2019-04-27T03:34:05.336Z,997.46
2019-04-27T03:35:03.081Z,997.39
2019-04-27T03:36:02.857Z,997.38
2019-04-27T03:37:02.050Z,997.37
2019-04-27T03:38:01.031Z,997.45
2019-04-27T03:39:01.563Z,997.40
2019-04-27T03:40:01.326Z,997.45
2019-04-27T03:41:01.576Z,997.39
2019-04-27T03:42:01.704Z,997.34
2019-04-27T03:43:01.835Z,997.35
2019-04-27T03:44:01.975Z,997.34
2019-04-27T03:45:02.129Z,997.32
2019-04-27T03:46:02.561Z,997.35
2019-04-27T03:47:02.440Z,997.35
2019-04-27T03:48:02.596Z,997.30
2019-04-27T03:49:03.546Z,997.32
2019-04-27T03:50:02.953Z,997.31
2019-04-27T03:51:03.155Z,997.31
2019-04-27T03:52:03.325Z,997.30
2019-04-27T03:53:03.473Z,997.30
2019-04-27T03:54:04.087Z,997.33
2019-04-27T03:55:03.866Z,997.29
2019-04-27T03:56:04.060Z,997.33
2019-04-27T03:57:04.270Z,997.33
2019-04-27T03:58:04.462Z,997.26
2019-04-27T03:59:04.657Z,997.30
2019-04-27T04:00:04.842Z,997.28
2019-04-27T04:01:05.050Z,997.36
2019-04-27T04:02:06.055Z,997.28
2019-04-27T04:03:06.044Z,997.21
2019-04-27T04:04:06.065Z,997.18
2019-04-27T04:05:05.678Z,997.20
2019-04-27T04:06:05.883Z,997.22
2019-04-27T04:07:06.032Z,997.18
2019-04-27T04:08:06.152Z,997.12
2019-04-27T04:09:06.284Z,997.17
2019-04-27T04:10:06.409Z,997.10
2019-04-27T04:11:06.565Z,997.14
2019-04-27T04:12:09.448Z,997.14
2019-04-27T04:13:06.905Z,997.08
2019-04-27T04:14:07.039Z,997.09
2019-04-27T04:15:09.806Z,997.13
2019-04-27T04:16:08.001Z,997.13
2019-04-27T04:17:09.842Z,997.07
2019-04-27T04:18:09.830Z,997.12
2019-04-27T04:19:10.017Z,997.08
2019-04-27T04:20:10.145Z,997.01
2019-04-27T04:21:09.628Z,997.08
2019-04-27T04:22:10.241Z,997.08
2019-04-27T04:23:10.595Z,997.11
2019-04-27T04:24:11.883Z,997.10
2019-04-27T04:25:10.779Z,997.04
2019-04-27T04:26:10.205Z,997.08
2019-04-27T04:27:10.084Z,997.14
2019-04-27T04:28:09.600Z,997.11
2019-04-27T04:29:10.567Z,997.06
2019-04-27T04:30:12.286Z,997.09
2019-04-27T04:31:13.844Z,997.07
2019-04-27T04:32:12.050Z,997.13
2019-04-27T04:33:11.482Z,997.11
2019-04-27T04:34:12.090Z,997.11
2019-04-27T04:35:11.745Z,997.09
2019-04-27T04:36:10.871Z,997.08
2019-04-27T04:37:11.035Z,997.06
2019-04-27T04:38:11.231Z,997.00
2019-04-27T04:39:12.473Z,997.01
2019-04-27T04:40:12.535Z,997.09
2019-04-27T04:41:11.783Z,996.96
2019-04-27T04:42:11.944Z,996.92
2019-04-27T04:43:12.103Z,996.90
2019-04-27T04:44:12.641Z,996.88
2019-04-27T04:45:13.481Z,996.88
2019-04-27T04:46:13.336Z,996.84
2019-04-27T04:47:13.848Z,996.80
2019-04-27T04:48:12.988Z,996.80
2019-04-27T04:49:13.142Z,996.80
2019-04-27T04:50:15.252Z,996.79
2019-04-27T04:51:14.509Z,996.80
2019-04-27T04:52:13.635Z,996.84
2019-04-27T04:53:13.848Z,996.78
2019-04-27T04:54:14.029Z,996.82
2019-04-27T04:55:15.217Z,996.81
2019-04-27T04:56:14.342Z,996.78
2019-04-27T04:57:14.484Z,996.76
2019-04-27T04:58:15.067Z,996.75
2019-04-27T04:59:14.801Z,996.71
2019-04-27T05:00:15.058Z,996.72
2019-04-27T05:01:15.313Z,996.74
2019-04-27T05:02:16.061Z,996.70
2019-04-27T05:03:15.551Z,996.75
2019-04-27T05:04:15.815Z,996.71
2019-04-27T05:05:15.961Z,996.71
2019-04-27T05:06:16.099Z,996.70
2019-04-27T05:07:16.230Z,996.68
2019-04-27T05:08:16.361Z,996.70
2019-04-27T05:09:16.560Z,996.79
2019-04-27T05:10:16.661Z,996.79
2019-04-27T05:11:16.780Z,996.71
2019-04-27T05:12:16.915Z,996.73
2019-04-27T05:13:19.317Z,996.78
2019-04-27T05:14:19.979Z,996.72
2019-04-27T05:15:19.233Z,996.74
2019-04-27T05:16:18.895Z,996.66
2019-04-27T05:17:19.454Z,996.68
2019-04-27T05:18:19.146Z,996.67
2019-04-27T05:19:18.855Z,996.66
2019-04-27T05:20:24.384Z,996.64
2019-04-27T05:21:20.552Z,996.68
2019-04-27T05:22:19.562Z,996.61
2019-04-27T05:23:19.875Z,996.53
2019-04-27T05:24:19.377Z,996.54
2019-04-27T05:25:20.302Z,996.55
2019-04-27T05:26:20.769Z,996.60
2019-04-27T05:27:19.633Z,996.54
2019-04-27T05:28:19.767Z,996.57
2019-04-27T05:29:19.922Z,996.50
2019-04-27T05:30:20.083Z,996.44
2019-04-27T05:31:20.229Z,996.48
2019-04-27T05:32:20.711Z,996.42
2019-04-27T05:33:21.546Z,996.44
2019-04-27T05:34:21.068Z,996.46
2019-04-27T05:35:20.968Z,996.46
2019-04-27T05:36:21.105Z,996.50
2019-04-27T05:37:27.831Z,996.53
2019-04-27T05:38:23.472Z,996.53
2019-04-27T05:39:25.031Z,996.51
2019-04-27T05:40:23.068Z,996.46
2019-04-27T05:41:22.061Z,996.54
2019-04-27T05:42:22.200Z,996.51
2019-04-27T05:43:25.536Z,996.48
2019-04-27T05:44:23.551Z,996.49
2019-04-27T05:45:23.022Z,996.45
2019-04-27T05:46:23.946Z,996.50
2019-04-27T05:47:24.015Z,996.49
2019-04-27T05:48:27.757Z,996.45
2019-04-27T05:49:25.376Z,996.44
2019-04-27T05:50:35.587Z,996.50
2019-04-27T05:51:25.829Z,996.41
2019-04-27T05:52:24.036Z,996.42
2019-04-27T05:53:24.180Z,996.43
2019-04-27T05:54:24.300Z,996.40
2019-04-27T05:55:24.419Z,996.38
2019-04-27T05:56:24.694Z,996.45
2019-04-27T05:57:24.815Z,996.42
2019-04-27T05:58:25.049Z,996.43
2019-04-27T05:59:25.278Z,996.47
2019-04-27T06:00:25.425Z,996.42
2019-04-27T06:01:26.071Z,996.40
2019-04-27T06:02:25.687Z,996.38
2019-04-27T06:03:25.817Z,996.38
2019-04-27T06:04:25.962Z,996.41
2019-04-27T06:05:29.117Z,996.33
2019-04-27T06:06:26.260Z,996.33
2019-04-27T06:07:26.439Z,996.44
2019-04-27T06:08:26.592Z,996.48
2019-04-27T06:09:26.764Z,996.42
2019-04-27T06:10:26.933Z,996.37
2019-04-27T06:11:28.645Z,996.40
2019-04-27T06:12:27.247Z,996.41
2019-04-27T06:13:30.765Z,996.35
2019-04-27T06:14:29.556Z,996.33
2019-04-27T06:15:28.385Z,996.32
2019-04-27T06:16:29.538Z,996.28
2019-04-27T06:17:29.903Z,996.27
2019-04-27T06:18:29.389Z,996.31
2019-04-27T06:19:29.161Z,996.24
2019-04-27T06:20:29.651Z,996.29
2019-04-27T06:21:29.509Z,996.24
2019-04-27T06:22:29.988Z,996.21
2019-04-27T06:23:29.159Z,996.12
2019-04-27T06:24:29.749Z,996.13
2019-04-27T06:25:30.714Z,996.10
2019-04-27T06:26:30.707Z,996.15
2019-04-27T06:27:30.792Z,996.19
2019-04-27T06:28:31.495Z,996.23
2019-04-27T06:29:31.160Z,996.17
2019-04-27T06:30:31.074Z,996.18
2019-04-27T06:31:30.538Z,996.17
2019-04-27T06:32:30.657Z,996.23
2019-04-27T06:33:34.315Z,996.21
2019-04-27T06:34:32.036Z,996.11
2019-04-27T06:35:31.277Z,996.12
2019-04-27T06:36:31.400Z,996.14
2019-04-27T06:37:31.543Z,996.14
2019-04-27T06:38:31.695Z,996.09
2019-04-27T06:39:31.839Z,996.12
2019-04-27T06:40:31.961Z,996.16
2019-04-27T06:41:32.589Z,996.11
2019-04-27T06:42:32.325Z,996.12
2019-04-27T06:43:32.455Z,996.14
2019-04-27T06:44:32.585Z,996.08
2019-04-27T06:45:32.826Z,996.07
2019-04-27T06:46:32.968Z,996.05
2019-04-27T06:47:33.079Z,996.04
2019-04-27T06:48:33.309Z,996.09
2019-04-27T06:49:33.434Z,996.06
2019-04-27T06:50:33.581Z,996.05
2019-04-27T06:51:34.573Z,996.03
2019-04-27T06:52:33.937Z,996.00
2019-04-27T06:53:34.062Z,996.03
2019-04-27T06:54:34.194Z,995.98
2019-04-27T06:55:34.337Z,996.00
2019-04-27T06:56:34.467Z,996.02
2019-04-27T06:57:34.692Z,995.94
2019-04-27T06:58:34.938Z,995.98
2019-04-27T06:59:35.098Z,995.98
2019-04-27T07:00:35.258Z,996.02
2019-04-27T07:01:35.398Z,996.00
2019-04-27T07:02:35.521Z,995.99
2019-04-27T07:03:35.659Z,996.02
2019-04-27T07:04:35.788Z,996.01
2019-04-27T07:05:35.967Z,996.04
2019-04-27T07:06:36.106Z,996.06
2019-04-27T07:07:36.250Z,996.02
2019-04-27T07:08:36.380Z,995.99
2019-04-27T07:09:36.526Z,996.03
2019-04-27T07:10:36.702Z,996.02
2019-04-27T07:11:36.862Z,996.01
2019-04-27T07:12:40.712Z,996.03
2019-04-27T07:13:38.917Z,995.97
2019-04-27T07:14:50.363Z,995.96
2019-04-27T07:15:38.742Z,995.99
2019-04-27T07:16:39.178Z,996.01
2019-04-27T07:17:38.856Z,996.01
2019-04-27T07:18:39.720Z,995.98
2019-04-27T07:19:39.742Z,995.96
2019-04-27T07:20:39.552Z,995.96
2019-04-27T07:21:39.964Z,996.06
2019-04-27T07:22:39.920Z,996.09
2019-04-27T07:23:39.135Z,996.09
2019-04-27T07:24:40.608Z,996.10
2019-04-27T07:25:39.438Z,996.03
2019-04-27T07:26:39.557Z,996.05
2019-04-27T07:27:40.097Z,996.05
2019-04-27T07:28:41.027Z,996.07
2019-04-27T07:29:44.707Z,996.04
2019-04-27T07:30:40.210Z,996.04
2019-04-27T07:31:40.589Z,996.09
2019-04-27T07:32:40.600Z,996.08
2019-04-27T07:33:41.758Z,996.03
2019-04-27T07:34:40.988Z,996.14
2019-04-27T07:35:42.087Z,996.04
2019-04-27T07:36:41.464Z,996.05
2019-04-27T07:37:41.658Z,996.05
2019-04-27T07:38:42.583Z,996.09
2019-04-27T07:39:41.977Z,996.03
2019-04-27T07:40:43.076Z,996.00
2019-04-27T07:41:42.328Z,996.12
2019-04-27T07:42:42.560Z,996.12
2019-04-27T07:43:42.717Z,996.07
2019-04-27T07:44:42.878Z,996.14
2019-04-27T07:45:43.046Z,996.00
2019-04-27T07:46:43.206Z,996.05
2019-04-27T07:47:43.402Z,996.03
2019-04-27T07:48:43.572Z,996.02
2019-04-27T07:49:43.787Z,996.03
2019-04-27T07:50:43.955Z,996.05
2019-04-27T07:51:44.153Z,996.04
2019-04-27T07:52:44.298Z,995.98
2019-04-27T07:53:44.476Z,996.06
2019-04-27T07:54:44.642Z,996.01
2019-04-27T07:55:44.791Z,996.02
2019-04-27T07:56:45.090Z,996.02
2019-04-27T07:57:45.189Z,996.01
2019-04-27T07:58:45.364Z,996.05
2019-04-27T07:59:45.512Z,996.08
2019-04-27T08:00:45.676Z,996.04
2019-04-27T08:01:45.821Z,996.00
2019-04-27T08:02:46.020Z,996.10
2019-04-27T08:03:46.168Z,996.04
2019-04-27T08:04:47.871Z,995.98
2019-04-27T08:05:48.981Z,996.07
2019-04-27T08:06:46.611Z,995.96
2019-04-27T08:07:46.774Z,996.00
2019-04-27T08:08:46.943Z,996.07
2019-04-27T08:09:47.107Z,996.01
2019-04-27T08:10:50.157Z,995.96
2019-04-27T08:11:48.841Z,996.00
2019-04-27T08:12:47.621Z,996.09
2019-04-27T08:13:49.058Z,995.97
2019-04-27T08:14:49.096Z,995.93
2019-04-27T08:15:49.594Z,995.94
2019-04-27T08:16:48.760Z,995.98
2019-04-27T08:17:49.552Z,995.96
2019-04-27T08:18:49.354Z,995.97
2019-04-27T08:19:49.874Z,995.98
2019-04-27T08:20:49.167Z,996.00
2019-04-27T08:21:50.137Z,996.03
2019-04-27T08:22:50.085Z,995.97
2019-04-27T08:23:49.519Z,996.00
2019-04-27T08:24:50.572Z,995.97
2019-04-27T08:25:50.809Z,996.04
2019-04-27T08:26:50.030Z,995.99
2019-04-27T08:27:51.085Z,996.04
2019-04-27T08:28:50.363Z,996.00
2019-04-27T08:29:50.514Z,996.06
2019-04-27T08:30:50.647Z,996.06
2019-04-27T08:31:50.779Z,996.03
2019-04-27T08:32:50.927Z,996.12
2019-04-27T08:33:51.093Z,996.09
2019-04-27T08:34:51.234Z,996.08
2019-04-27T08:35:51.443Z,996.06
2019-04-27T08:36:52.590Z,996.03
2019-04-27T08:37:51.718Z,996.05
2019-04-27T08:38:51.871Z,996.04
2019-04-27T08:39:52.027Z,995.98
2019-04-27T08:40:52.228Z,996.05
2019-04-27T08:41:52.400Z,996.00
2019-04-27T08:42:55.482Z,996.04
2019-04-27T08:43:52.693Z,996.03
2019-04-27T08:44:52.838Z,996.00
2019-04-27T08:45:53.004Z,996.01
2019-04-27T08:46:53.600Z,995.99
2019-04-27T08:47:53.393Z,996.03
2019-04-27T08:48:53.556Z,995.89
2019-04-27T08:49:54.599Z,995.88
2019-04-27T08:50:54.603Z,995.82
2019-04-27T08:51:59.253Z,995.85
2019-04-27T08:52:56.278Z,995.81
2019-04-27T08:53:54.363Z,995.76
2019-04-27T08:54:55.093Z,995.76
2019-04-27T08:55:54.739Z,995.71
2019-04-27T08:56:54.987Z,995.71
2019-04-27T08:57:56.094Z,995.76
2019-04-27T08:58:55.328Z,995.75
2019-04-27T08:59:55.486Z,995.74
2019-04-27T09:00:55.672Z,995.74
2019-04-27T09:01:55.917Z,995.73
2019-04-27T09:02:56.072Z,995.69
2019-04-27T09:03:57.086Z,995.69
2019-04-27T09:04:56.464Z,995.65
2019-04-27T09:05:56.646Z,995.74
2019-04-27T09:06:56.875Z,995.72
2019-04-27T09:07:56.933Z,995.73
2019-04-27T09:08:57.102Z,995.74
2019-04-27T09:09:59.606Z,995.72
2019-04-27T09:10:59.006Z,995.73
2019-04-27T09:11:59.378Z,995.77
2019-04-27T09:12:58.864Z,995.80
2019-04-27T09:13:59.053Z,995.77
2019-04-27T09:14:59.270Z,995.77
2019-04-27T09:16:00.030Z,995.76
2019-04-27T09:17:02.802Z,995.70
2019-04-27T09:17:59.806Z,995.74
2019-04-27T09:18:59.813Z,995.69
2019-04-27T09:20:00.987Z,995.70
2019-04-27T09:21:00.098Z,995.69
2019-04-27T09:22:10.366Z,995.68
2019-04-27T09:23:01.615Z,995.63
2019-04-27T09:24:00.588Z,995.64
2019-04-27T09:25:00.612Z,995.57
2019-04-27T09:26:00.112Z,995.64
2019-04-27T09:27:00.272Z,995.56
2019-04-27T09:28:00.506Z,995.61
2019-04-27T09:29:00.670Z,995.66
2019-04-27T09:30:00.814Z,995.64
2019-04-27T09:31:00.955Z,995.60
2019-04-27T09:32:01.829Z,995.59
2019-04-27T09:33:02.230Z,995.49
2019-04-27T09:34:01.392Z,995.61
2019-04-27T09:35:01.562Z,995.53
2019-04-27T09:36:01.712Z,995.58
2019-04-27T09:37:01.873Z,995.51
2019-04-27T09:38:02.049Z,995.48
2019-04-27T09:39:02.240Z,995.42
2019-04-27T09:40:02.383Z,995.47
2019-04-27T09:41:02.528Z,995.48
2019-04-27T09:42:03.701Z,995.44
2019-04-27T09:43:02.834Z,995.41
2019-04-27T09:44:03.123Z,995.48
2019-04-27T09:45:03.629Z,995.43
2019-04-27T09:46:05.708Z,995.40
2019-04-27T09:47:03.451Z,995.39
2019-04-27T09:48:06.439Z,995.38
2019-04-27T09:49:03.802Z,995.30
2019-04-27T09:50:05.773Z,995.27
2019-04-27T09:51:04.170Z,995.33
2019-04-27T09:52:06.254Z,995.37
2019-04-27T09:53:06.385Z,995.28
2019-04-27T09:54:05.874Z,995.29
2019-04-27T09:55:06.707Z,995.30
2019-04-27T09:56:06.173Z,995.28
2019-04-27T09:57:06.911Z,995.35
2019-04-27T09:58:07.107Z,995.36
2019-04-27T09:59:06.418Z,995.31
2019-04-27T10:00:07.156Z,995.29
2019-04-27T10:01:06.666Z,995.29
2019-04-27T10:02:08.732Z,995.33
2019-04-27T10:03:07.491Z,995.23
2019-04-27T10:04:06.712Z,995.27
2019-04-27T10:05:07.170Z,995.24
2019-04-27T10:06:07.615Z,995.25
2019-04-27T10:07:07.235Z,995.28
2019-04-27T10:08:07.488Z,995.23
2019-04-27T10:09:07.589Z,995.22
2019-04-27T10:10:08.117Z,995.17
2019-04-27T10:11:08.121Z,995.19
2019-04-27T10:12:07.977Z,995.18
2019-04-27T10:13:08.627Z,995.18
2019-04-27T10:14:09.112Z,995.18
2019-04-27T10:15:08.382Z,995.12
2019-04-27T10:16:08.529Z,995.19
2019-04-27T10:17:09.596Z,995.16
2019-04-27T10:18:09.128Z,995.15
2019-04-27T10:19:08.972Z,995.16
2019-04-27T10:20:09.110Z,995.13
2019-04-27T10:21:09.295Z,995.03
2019-04-27T10:22:09.507Z,995.07
2019-04-27T10:23:09.730Z,995.01
2019-04-27T10:24:09.866Z,995.02
2019-04-27T10:25:10.010Z,995.01
2019-04-27T10:26:10.178Z,994.98
2019-04-27T10:27:11.114Z,995.00
2019-04-27T10:28:10.627Z,994.97
2019-04-27T10:29:10.632Z,994.99
2019-04-27T10:30:10.754Z,994.99
2019-04-27T10:31:10.899Z,994.95
2019-04-27T10:32:11.053Z,995.01
2019-04-27T10:33:11.255Z,994.98
2019-04-27T10:34:11.422Z,994.92
2019-04-27T10:35:11.583Z,994.97
2019-04-27T10:36:11.758Z,994.86
2019-04-27T10:37:11.910Z,994.93
2019-04-27T10:38:12.072Z,994.89
2019-04-27T10:39:13.513Z,994.91
2019-04-27T10:40:13.412Z,994.95
2019-04-27T10:41:12.523Z,994.92
2019-04-27T10:42:12.692Z,994.98
2019-04-27T10:43:12.834Z,994.89
2019-04-27T10:44:13.000Z,994.91
2019-04-27T10:45:13.159Z,994.86
2019-04-27T10:46:15.663Z,994.86
2019-04-27T10:47:15.693Z,994.87
2019-04-27T10:48:13.596Z,994.82
2019-04-27T10:49:13.788Z,994.80
2019-04-27T10:50:13.999Z,994.67
2019-04-27T10:51:15.995Z,994.80
2019-04-27T10:52:15.117Z,994.70
2019-04-27T10:53:16.858Z,994.70
2019-04-27T10:54:15.132Z,994.73
2019-04-27T10:55:16.111Z,994.65
2019-04-27T10:56:15.064Z,994.70
2019-04-27T10:57:15.833Z,994.63
2019-04-27T10:58:16.430Z,994.69
2019-04-27T10:59:16.447Z,994.70
2019-04-27T11:00:16.730Z,994.67
2019-04-27T11:01:15.845Z,994.69
2019-04-27T11:02:16.629Z,994.78
2019-04-27T11:03:16.666Z,994.92
2019-04-27T11:04:17.431Z,995.02
2019-04-27T11:05:16.603Z,995.18
2019-04-27T11:06:16.803Z,995.32
2019-04-27T11:07:17.031Z,995.34
2019-04-27T11:08:17.236Z,995.34
2019-04-27T11:09:18.212Z,995.32
2019-04-27T11:10:18.305Z,995.38
2019-04-27T11:11:17.816Z,995.50
2019-04-27T11:12:17.995Z,995.57
2019-04-27T11:13:18.169Z,995.52
2019-04-27T11:14:18.364Z,995.54
2019-04-27T11:15:18.620Z,995.62
2019-04-27T11:16:18.804Z,995.59
2019-04-27T11:17:18.967Z,995.56
2019-04-27T11:18:19.141Z,995.64
2019-04-27T11:19:19.305Z,995.58
2019-04-27T11:20:19.502Z,995.66
2019-04-27T11:21:19.660Z,995.67
2019-04-27T11:22:19.867Z,995.68
2019-04-27T11:23:20.624Z,995.70
2019-04-27T11:24:20.144Z,995.70
2019-04-27T11:25:20.306Z,995.70
2019-04-27T11:26:20.639Z,995.69
2019-04-27T11:27:20.668Z,995.58
2019-04-27T11:28:20.823Z,995.59
2019-04-27T11:29:20.971Z,995.63
2019-04-27T11:30:21.110Z,995.62
2019-04-27T11:31:21.286Z,995.67
2019-04-27T11:32:21.466Z,995.66
2019-04-27T11:33:22.614Z,995.67
2019-04-27T11:34:22.147Z,995.61
2019-04-27T11:35:22.033Z,995.74
2019-04-27T11:36:22.212Z,995.68
2019-04-27T11:37:22.632Z,995.72
2019-04-27T11:38:22.540Z,995.75
2019-04-27T11:39:22.696Z,995.73
2019-04-27T11:40:22.858Z,995.76
2019-04-27T11:41:22.994Z,995.76
2019-04-27T11:42:23.637Z,995.76
2019-04-27T11:43:26.023Z,995.74
2019-04-27T11:44:23.451Z,995.79
2019-04-27T11:45:23.582Z,995.76
2019-04-27T11:46:23.732Z,995.77
2019-04-27T11:47:23.865Z,995.80
2019-04-27T11:48:24.020Z,995.83
2019-04-27T11:49:25.805Z,995.82
2019-04-27T11:50:25.643Z,995.82
2019-04-27T11:51:26.475Z,995.74
2019-04-27T11:52:24.757Z,995.74
2019-04-27T11:53:26.221Z,995.75
2019-04-27T11:54:25.536Z,995.76
2019-04-27T11:55:27.361Z,995.72
2019-04-27T11:56:27.486Z,995.79
2019-04-27T11:57:26.666Z,995.77
2019-04-27T11:58:26.593Z,995.79
2019-04-27T11:59:27.147Z,995.77
2019-04-27T12:00:27.663Z,995.79
2019-04-27T12:01:27.323Z,995.72
2019-04-27T12:02:26.463Z,995.76
2019-04-27T12:03:26.640Z,995.77
2019-04-27T12:04:26.810Z,995.82
2019-04-27T12:05:26.979Z,995.79
2019-04-27T12:06:28.125Z,995.89
2019-04-27T12:07:27.641Z,995.88
2019-04-27T12:08:28.136Z,995.89
2019-04-27T12:09:27.814Z,995.87
2019-04-27T12:10:28.039Z,995.92
2019-04-27T12:11:28.193Z,995.90
2019-04-27T12:12:28.387Z,995.93
2019-04-27T12:13:28.545Z,995.92
2019-04-27T12:14:28.702Z,995.89
2019-04-27T12:15:28.889Z,995.91
2019-04-27T12:16:29.051Z,995.90
2019-04-27T12:17:29.341Z,995.84
2019-04-27T12:18:30.436Z,995.83
2019-04-27T12:19:30.135Z,995.83
2019-04-27T12:20:29.805Z,995.84
2019-04-27T12:21:29.986Z,995.89
2019-04-27T12:22:30.163Z,995.87
2019-04-27T12:23:35.514Z,995.87
2019-04-27T12:24:32.544Z,995.90
2019-04-27T12:25:30.669Z,995.91
2019-04-27T12:26:30.825Z,995.93
2019-04-27T12:27:31.000Z,995.96
2019-04-27T12:28:31.164Z,995.95
2019-04-27T12:29:31.399Z,995.98
2019-04-27T12:30:32.131Z,995.97